Time;durP1;ratioP1;P1;durP2;ratioP2;P2;SDS_P1;SDS_P2;PMS_P1;PMS_P2;Temp;Humidity;BMP_temperature;BMP_pressure;BME280_temperature;BME280_humidity;BME280_pressure;Samples;Min_cycle;Max_cycle;Signal;HPM_P1;HPM_P2
2021/09/05 00:00:35;;;;;;;16.50;11.70;;;;;;;18.19;65.49;100774.05;117341;1184;21856;-58
2021/09/05 00:03:03;;;;;;;13.60;10.80;;;;;;;18.21;65.53;100774.73;117433;1184;22068;-68
2021/09/05 00:05:32;;;;;;;16.30;10.90;;;;;;;18.21;65.40;100781.11;117446;1183;21892;-58
2021/09/05 00:08:00;;;;;;;17.70;11.50;;;;;;;18.19;65.56;100778.66;117346;1184;21843;-68
2021/09/05 00:10:28;;;;;;;16.50;11.10;;;;;;;18.18;65.51;100777.48;117320;1185;21973;-68
2021/09/05 00:12:56;;;;;;;17.40;10.80;;;;;;;18.17;65.52;100774.32;117400;1182;21854;-58
2021/09/05 00:15:27;;;;;;;16.10;10.60;;;;;;;18.17;65.52;100777.17;117440;1181;23442;-67
2021/09/05 00:18:15;;;;;;;15.30;10.70;;;;;;;18.14;65.63;100779.58;117300;1186;22094;-67
2021/09/05 00:20:43;;;;;;;20.00;11.40;;;;;;;18.13;65.52;100783.15;117391;1185;23451;-68
2021/09/05 00:23:13;;;;;;;16.90;11.30;;;;;;;18.11;65.47;100780.02;117386;1184;21852;-67
2021/09/05 00:25:42;;;;;;;18.80;10.80;;;;;;;18.16;65.45;100777.72;117336;1184;21874;-59
2021/09/05 00:28:10;;;;;;;17.50;11.20;;;;;;;18.27;65.09;100775.71;117364;1182;23566;-67
2021/09/05 00:30:38;;;;;;;14.80;10.50;;;;;;;18.29;65.03;100772.45;117362;1186;23432;-67
2021/09/05 00:33:07;;;;;;;17.00;10.40;;;;;;;18.27;65.11;100777.84;117310;1185;23440;-58
2021/09/05 00:35:35;;;;;;;14.70;10.00;;;;;;;18.22;65.18;100781.59;117324;1176;21864;-67
2021/09/05 00:38:05;;;;;;;14.90;10.20;;;;;;;18.21;65.23;100782.34;117418;1185;23469;-68
2021/09/05 00:40:33;;;;;;;13.40;8.90;;;;;;;18.21;65.23;100783.05;117408;1185;23477;-68
2021/09/05 00:43:01;;;;;;;15.60;10.70;;;;;;;18.20;65.28;100786.47;117406;1181;23466;-59
2021/09/05 00:45:30;;;;;;;17.10;9.80;;;;;;;18.19;65.17;100787.37;117411;1185;21895;-67
2021/09/05 00:48:00;;;;;;;17.40;10.70;;;;;;;18.16;65.32;100792.28;117403;1184;23461;-63
2021/09/05 00:50:28;;;;;;;13.10;9.40;;;;;;;18.03;65.57;100801.83;117299;1183;23432;-67
2021/09/05 00:52:57;;;;;;;14.50;10.00;;;;;;;17.99;65.70;100801.41;117393;1184;24129;-58
2021/09/05 00:55:25;;;;;;;14.70;9.90;;;;;;;17.97;65.82;100804.30;117358;1185;21867;-59
2021/09/05 00:57:56;;;;;;;14.80;9.60;;;;;;;17.96;65.79;100804.00;117311;1186;23478;-68
2021/09/05 01:00:25;;;;;;;14.90;10.10;;;;;;;17.95;65.83;100806.52;117388;1185;21851;-62
2021/09/05 01:02:53;;;;;;;13.40;9.80;;;;;;;17.96;65.75;100806.67;117412;1184;22896;-68
2021/09/05 01:05:22;;;;;;;15.40;9.30;;;;;;;18.00;65.62;100802.80;117332;1184;24187;-67
2021/09/05 01:07:50;;;;;;;14.00;9.60;;;;;;;18.10;65.35;100803.16;117363;1185;21852;-68
2021/09/05 01:10:39;;;;;;;12.80;8.80;;;;;;;18.18;65.27;100800.92;117415;1185;22979;-68
2021/09/05 01:13:08;;;;;;;12.50;8.60;;;;;;;18.23;65.11;100797.36;117369;1183;21860;-67
2021/09/05 01:15:47;;;;;;;12.10;8.90;;;;;;;18.25;65.11;100794.23;117319;1182;23482;-59
2021/09/05 01:18:22;;;;;;;14.10;9.20;;;;;;;18.27;65.00;100800.21;117365;1182;23526;-58
2021/09/05 01:20:50;;;;;;;12.40;8.20;;;;;;;18.27;65.10;100797.39;117392;1185;21864;-58
2021/09/05 01:23:20;;;;;;;13.80;9.00;;;;;;;18.27;64.98;100794.35;117412;1184;21854;-59
2021/09/05 01:25:49;;;;;;;12.30;8.20;;;;;;;18.26;64.96;100793.68;117390;1184;23464;-68
2021/09/05 01:28:17;;;;;;;13.80;8.40;;;;;;;18.25;65.01;100788.59;117411;1185;21853;-59
2021/09/05 01:30:45;;;;;;;14.30;8.80;;;;;;;18.27;64.94;100788.52;117322;1185;21856;-58
2021/09/05 01:33:15;;;;;;;11.90;8.00;;;;;;;18.28;64.98;100796.81;117261;1184;21863;-64
2021/09/05 01:35:43;;;;;;;11.10;7.90;;;;;;;18.29;65.05;100801.58;117425;1185;21894;-69
2021/09/05 01:38:11;;;;;;;15.00;8.40;;;;;;;18.28;64.97;100804.27;117325;1185;23640;-69
2021/09/05 01:40:40;;;;;;;14.60;9.00;;;;;;;18.26;65.01;100807.19;117373;1182;23465;-68
2021/09/05 01:43:08;;;;;;;11.00;7.80;;;;;;;18.20;64.95;100807.78;117377;1185;21858;-59
2021/09/05 01:45:36;;;;;;;13.00;7.70;;;;;;;18.19;65.03;100809.45;117413;1185;23466;-67
2021/09/05 01:48:05;;;;;;;10.50;7.60;;;;;;;18.16;64.99;100809.51;117289;1182;22805;-59
2021/09/05 01:50:33;;;;;;;12.30;7.80;;;;;;;18.16;65.13;100806.69;117344;1185;23439;-68
2021/09/05 01:53:02;;;;;;;10.80;7.30;;;;;;;18.18;65.22;100810.33;117357;1185;23465;-68
2021/09/05 01:55:30;;;;;;;11.30;8.20;;;;;;;18.21;65.13;100812.52;117497;1185;21886;-67
2021/09/05 01:57:59;;;;;;;13.20;7.90;;;;;;;18.22;65.19;100812.34;117410;1185;23567;-66
2021/09/05 02:00:28;;;;;;;11.30;7.70;;;;;;;18.21;65.11;100810.39;117347;1185;23465;-58
2021/09/05 02:02:57;;;;;;;13.20;7.50;;;;;;;18.20;65.12;100805.98;117322;1184;22903;-68
2021/09/05 02:05:26;;;;;;;15.60;7.80;;;;;;;18.20;64.98;100801.21;117358;1185;22544;-69
2021/09/05 02:07:55;;;;;;;11.00;7.30;;;;;;;18.18;65.02;100802.32;117395;1184;24152;-67
2021/09/05 02:10:25;;;;;;;15.10;7.90;;;;;;;18.20;65.11;100808.82;117402;1184;23439;-58
2021/09/05 02:12:53;;;;;;;11.00;8.20;;;;;;;18.21;65.07;100809.86;117388;1185;22311;-67
2021/09/05 02:15:21;;;;;;;12.10;7.90;;;;;;;18.23;65.09;100807.33;117366;1185;24152;-68
2021/09/05 02:18:02;;;;;;;12.90;8.70;;;;;;;18.22;65.03;100816.95;117334;1182;24149;-58
2021/09/05 02:20:31;;;;;;;11.30;7.40;;;;;;;18.20;65.08;100821.64;117302;1182;22398;-58
2021/09/05 02:23:01;;;;;;;12.20;8.00;;;;;;;18.15;65.26;100826.23;117318;1185;22619;-67
2021/09/05 02:25:29;;;;;;;11.60;7.60;;;;;;;18.13;65.18;100827.38;117370;1184;21885;-58
2021/09/05 02:27:57;;;;;;;10.70;7.40;;;;;;;18.10;65.06;100828.02;117349;1185;21898;-58
2021/09/05 02:30:25;;;;;;;13.00;7.80;;;;;;;18.08;65.05;100829.36;117326;1183;22830;-59
2021/09/05 02:32:53;;;;;;;12.70;7.60;;;;;;;18.05;65.17;100829.11;117348;1183;21854;-67
2021/09/05 02:35:21;;;;;;;10.10;7.90;;;;;;;18.00;65.19;100829.08;117317;1185;23458;-68
2021/09/05 02:37:50;;;;;;;10.00;7.40;;;;;;;17.96;65.26;100835.05;117431;1184;23436;-59
2021/09/05 02:40:18;;;;;;;11.50;7.50;;;;;;;17.97;65.30;100839.30;117388;1185;21850;-67
2021/09/05 02:42:46;;;;;;;12.10;8.00;;;;;;;17.98;65.21;100838.01;117381;1182;23438;-59
2021/09/05 02:45:14;;;;;;;14.90;8.40;;;;;;;17.98;65.22;100837.48;117340;1185;21854;-58
2021/09/05 02:47:43;;;;;;;10.80;6.90;;;;;;;17.98;65.11;100840.50;117386;1185;23443;-68
2021/09/05 02:50:11;;;;;;;12.00;7.40;;;;;;;18.01;65.05;100842.58;117444;1185;21851;-59
2021/09/05 02:52:46;;;;;;;10.50;8.00;;;;;;;18.02;65.04;100845.89;117336;1185;23449;-68
2021/09/05 02:55:34;;;;;;;10.50;7.40;;;;;;;18.01;65.08;100849.11;117352;1185;22972;-60
2021/09/05 02:58:03;;;;;;;12.00;7.70;;;;;;;17.98;65.05;100846.70;117422;1184;23462;-58
2021/09/05 03:00:31;;;;;;;12.60;8.20;;;;;;;17.98;65.08;100854.70;117359;1185;21852;-67
2021/09/05 03:02:59;;;;;;;10.30;6.50;;;;;;;17.94;65.13;100851.11;117386;1183;21845;-67
2021/09/05 03:05:28;;;;;;;14.70;7.70;;;;;;;17.91;65.19;100855.81;117432;1182;24157;-67
2021/09/05 03:07:56;;;;;;;11.10;7.70;;;;;;;17.90;65.29;100856.59;117397;1184;22365;-65
2021/09/05 03:10:24;;;;;;;9.30;7.40;;;;;;;17.89;65.34;100864.43;117460;1185;23439;-62
2021/09/05 03:12:54;;;;;;;12.00;7.60;;;;;;;17.88;65.44;100864.48;117398;1185;23491;-58
2021/09/05 03:15:23;;;;;;;10.70;7.50;;;;;;;17.93;65.25;100864.11;117343;1185;22485;-66
2021/09/05 03:17:52;;;;;;;10.30;7.10;;;;;;;17.96;65.20;100864.18;117355;1182;22795;-58
2021/09/05 03:20:20;;;;;;;12.90;7.60;;;;;;;17.98;65.06;100860.57;117459;1184;23439;-58
2021/09/05 03:22:48;;;;;;;20.20;8.30;;;;;;;18.00;65.04;100860.52;117439;1185;21846;-57
2021/09/05 03:25:17;;;;;;;13.10;7.10;;;;;;;17.95;65.15;100867.04;117457;1184;21986;-65
2021/09/05 03:27:45;;;;;;;17.90;7.70;;;;;;;17.92;65.25;100875.49;117360;1183;21899;-66
2021/09/05 03:30:13;;;;;;;14.30;7.80;;;;;;;17.91;65.31;100885.30;117345;1185;21854;-65
2021/09/05 03:32:42;;;;;;;11.10;7.30;;;;;;;17.90;65.20;100890.67;117404;1178;21863;-57
2021/09/05 03:35:10;;;;;;;11.70;7.70;;;;;;;17.87;65.26;100893.61;117327;1186;21941;-63
2021/09/05 03:37:38;;;;;;;11.50;7.00;;;;;;;17.81;65.36;100893.45;117419;1184;23647;-56
2021/09/05 03:40:14;;;;;;;13.00;8.00;;;;;;;17.79;65.37;100895.46;117443;1185;23440;-58
2021/09/05 03:42:43;;;;;;;13.90;7.90;;;;;;;17.78;65.44;100899.42;117417;1185;24701;-57
2021/09/05 03:45:11;;;;;;;10.70;7.70;;;;;;;17.77;65.49;100906.89;117335;1184;22361;-65
2021/09/05 03:47:39;;;;;;;9.60;7.50;;;;;;;17.78;65.41;100910.25;117344;1182;21982;-66
2021/09/05 03:50:08;;;;;;;10.30;7.40;;;;;;;17.73;65.30;100914.67;117412;1185;23466;-57
2021/09/05 03:52:36;;;;;;;10.70;7.50;;;;;;;17.76;65.37;100909.61;117353;1182;23466;-57
2021/09/05 03:55:05;;;;;;;13.40;7.70;;;;;;;17.70;65.38;100908.20;117410;1184;23005;-66
2021/09/05 03:57:34;;;;;;;20.70;8.00;;;;;;;17.66;65.44;100909.23;117323;1182;21895;-64
2021/09/05 04:00:04;;;;;;;10.80;7.20;;;;;;;17.62;65.60;100917.52;117377;1185;23442;-65
2021/09/05 04:02:32;;;;;;;12.10;7.40;;;;;;;17.64;65.57;100924.37;117411;1185;21859;-58
2021/09/05 04:05:00;;;;;;;14.40;7.50;;;;;;;17.63;65.64;100924.95;117408;1184;23555;-65
2021/09/05 04:07:35;;;;;;;13.80;7.30;;;;;;;17.62;65.57;100930.82;117390;1184;23563;-61
2021/09/05 04:10:10;;;;;;;11.60;6.90;;;;;;;17.60;65.57;100929.66;117380;1185;21842;-66
2021/09/05 04:12:40;;;;;;;10.80;7.40;;;;;;;17.57;65.65;100930.45;117297;1184;23443;-58
2021/09/05 04:15:09;;;;;;;13.60;10.10;;;;;;;17.57;65.62;100935.45;117377;1185;21909;-57
2021/09/05 04:17:38;;;;;;;10.80;7.50;;;;;;;17.58;65.54;100936.64;117364;1185;22011;-57
2021/09/05 04:20:06;;;;;;;10.50;8.00;;;;;;;17.58;65.71;100936.64;117341;1182;21852;-66
2021/09/05 04:22:35;;;;;;;10.50;7.80;;;;;;;17.60;65.65;100941.38;117410;1185;21913;-65
2021/09/05 04:25:05;;;;;;;13.10;7.30;;;;;;;17.65;65.43;100934.29;117377;1185;23434;-67
2021/09/05 04:27:34;;;;;;;11.60;7.10;;;;;;;17.66;65.45;100936.21;117304;1185;21860;-57
2021/09/05 04:30:05;;;;;;;13.00;6.60;;;;;;;17.68;65.40;100944.46;117356;1184;23465;-67
2021/09/05 04:32:33;;;;;;;11.10;7.60;;;;;;;17.72;65.38;100947.89;117352;1185;23449;-66
2021/09/05 04:35:02;;;;;;;10.80;7.80;;;;;;;17.75;65.33;100949.93;117419;1185;23547;-66
2021/09/05 04:37:31;;;;;;;13.00;8.20;;;;;;;17.76;65.32;100951.31;117385;1184;21874;-58
2021/09/05 04:40:02;;;;;;;11.80;7.30;;;;;;;17.78;65.30;100952.83;117377;1185;23645;-66
2021/09/05 04:42:30;;;;;;;12.40;7.40;;;;;;;17.80;65.30;100945.84;117383;1184;21845;-66
2021/09/05 04:44:58;;;;;;;11.30;7.10;;;;;;;17.81;65.26;100945.29;117428;1182;22974;-66
2021/09/05 04:47:27;;;;;;;10.30;7.00;;;;;;;17.79;65.37;100951.39;117335;1185;22916;-66
2021/09/05 04:50:15;;;;;;;12.60;7.80;;;;;;;17.79;65.22;100956.52;117278;1186;22660;-57
2021/09/05 04:52:43;;;;;;;9.80;7.60;;;;;;;17.80;65.20;100951.88;117355;1185;21897;-66
2021/09/05 04:55:11;;;;;;;12.30;7.70;;;;;;;17.80;65.30;100952.08;117405;1185;22002;-65
2021/09/05 04:57:39;;;;;;;10.30;6.70;;;;;;;17.79;65.30;100957.77;117415;1182;23551;-57
2021/09/05 05:00:18;;;;;;;10.00;7.10;;;;;;;17.83;65.28;100957.11;117352;1182;23597;-68
2021/09/05 05:02:47;;;;;;;11.60;7.40;;;;;;;17.85;65.35;100960.23;117447;1184;23439;-57
2021/09/05 05:05:16;;;;;;;10.00;6.60;;;;;;;17.89;65.40;100964.01;117472;1182;23472;-65
2021/09/05 05:07:44;;;;;;;11.00;6.60;;;;;;;17.90;65.40;100970.36;117387;1185;23429;-65
2021/09/05 05:10:13;;;;;;;10.30;6.90;;;;;;;17.90;65.44;100973.38;117407;1186;23440;-57
2021/09/05 05:12:41;;;;;;;10.20;7.20;;;;;;;17.90;65.50;100974.98;117407;1188;21845;-58
2021/09/05 05:15:10;;;;;;;9.40;6.90;;;;;;;17.93;65.44;100978.27;117318;1185;23475;-58
2021/09/05 05:17:58;;;;;;;12.00;7.00;;;;;;;17.94;65.47;100974.85;117340;1185;21858;-64
2021/09/05 05:20:29;;;;;;;11.80;7.00;;;;;;;17.96;65.57;100979.05;117399;1183;23487;-57
2021/09/05 05:22:57;;;;;;;12.50;7.30;;;;;;;18.03;65.41;100977.24;117433;1176;21855;-64
2021/09/05 05:25:26;;;;;;;11.30;7.00;;;;;;;18.06;65.50;100981.25;117448;1185;21854;-57
2021/09/05 05:27:55;;;;;;;13.80;7.80;;;;;;;18.07;65.53;100991.67;117358;1182;23469;-64
2021/09/05 05:30:23;;;;;;;18.30;7.40;;;;;;;18.08;65.68;100995.55;117361;1185;21862;-57
2021/09/05 05:32:51;;;;;;;17.80;8.00;;;;;;;18.09;65.63;101000.48;117302;1185;21845;-57
2021/09/05 05:35:19;;;;;;;23.40;7.70;;;;;;;18.10;65.85;101000.80;117388;1184;24163;-57
2021/09/05 05:38:02;;;;;;;22.70;8.60;;;;;;;18.13;65.98;101001.05;117304;1184;22054;-63
2021/09/05 05:40:33;;;;;;;15.40;8.50;;;;;;;18.15;66.01;100999.57;117337;1185;22051;-58
2021/09/05 05:43:01;;;;;;;15.20;7.80;;;;;;;18.17;66.05;101002.35;117387;1185;22006;-64
2021/09/05 05:45:29;;;;;;;13.30;7.50;;;;;;;18.19;65.99;101006.35;117396;1185;23519;-57
2021/09/05 05:48:00;;;;;;;;;;;;;;;18.22;66.12;101011.05;117363;1183;23423;-63
2021/09/05 05:50:28;;;;;;;15.50;8.20;;;;;;;18.28;66.11;101011.41;117359;1186;24223;-57
2021/09/05 05:52:56;;;;;;;13.20;7.70;;;;;;;18.37;66.04;101008.58;117374;1184;21854;-57
2021/09/05 05:55:24;;;;;;;14.20;8.00;;;;;;;18.45;65.93;100997.85;117397;1185;21860;-63
2021/09/05 05:58:00;;;;;;;13.50;8.30;;;;;;;18.53;65.89;100997.02;117336;1182;23442;-57
2021/09/05 06:00:30;;;;;;;10.80;7.60;;;;;;;18.55;65.78;101000.14;117386;1183;23471;-65
2021/09/05 06:02:59;;;;;;;;;;;;;;;18.52;65.82;101002.39;117372;1184;23448;-65
2021/09/05 06:05:28;;;;;;;10.50;7.50;;;;;;;18.53;65.95;100999.51;117377;1184;23517;-65
2021/09/05 06:07:56;;;;;;;13.20;7.70;;;;;;;18.57;65.92;101002.36;117429;1186;23437;-57
2021/09/05 06:10:45;;;;;;;13.60;6.80;;;;;;;18.61;65.71;101003.30;117336;1184;21863;-64
2021/09/05 06:13:13;;;;;;;10.00;7.10;;;;;;;18.64;65.67;101000.36;117386;1182;21855;-57
2021/09/05 06:15:41;;;;;;;12.80;8.10;;;;;;;18.64;65.65;101008.38;117365;1185;21856;-65
2021/09/05 06:18:10;;;;;;;12.00;7.10;;;;;;;18.65;65.70;101007.77;117333;1184;23544;-64
2021/09/05 06:20:39;;;;;;;10.40;6.60;;;;;;;18.71;65.53;101012.57;117339;1187;23531;-58
2021/09/05 06:23:07;;;;;;;9.90;7.00;;;;;;;18.69;65.70;101019.75;117395;1182;23449;-58
2021/09/05 06:25:36;;;;;;;12.70;7.00;;;;;;;18.62;65.87;101023.55;117349;1188;23452;-57
2021/09/05 06:28:04;;;;;;;12.00;6.80;;;;;;;18.62;65.91;101031.16;117254;1186;23488;-67
2021/09/05 06:30:33;;;;;;;10.40;7.20;;;;;;;18.64;66.04;101038.05;117397;1185;22840;-64
2021/09/05 06:33:01;;;;;;;9.50;6.70;;;;;;;18.68;66.01;101040.57;117366;1182;23531;-57
2021/09/05 06:35:30;;;;;;;11.50;7.50;;;;;;;18.72;65.85;101045.73;117367;1185;21985;-57
2021/09/05 06:37:58;;;;;;;12.10;6.70;;;;;;;18.75;65.85;101045.32;117372;1184;21854;-57
2021/09/05 06:40:26;;;;;;;11.50;6.90;;;;;;;18.82;65.91;101046.47;117406;1185;21888;-57
2021/09/05 06:42:57;;;;;;;11.10;6.70;;;;;;;18.89;65.99;101044.61;117334;1185;23474;-57
2021/09/05 06:45:28;;;;;;;12.10;6.60;;;;;;;18.98;65.90;101044.86;117364;1185;23544;-64
2021/09/05 06:47:57;;;;;;;10.70;6.00;;;;;;;19.07;65.88;101047.70;117383;1185;24146;-66
2021/09/05 06:50:25;;;;;;;13.10;6.40;;;;;;;19.15;65.67;101049.56;117426;1185;23618;-57
2021/09/05 06:52:54;;;;;;;16.40;6.70;;;;;;;19.21;65.51;101053.95;117386;1185;23459;-57
2021/09/05 06:55:22;;;;;;;12.00;6.40;;;;;;;19.27;65.45;101056.05;117261;1186;21845;-64
2021/09/05 06:57:50;;;;;;;13.70;6.50;;;;;;;19.34;65.50;101061.13;117425;1185;23462;-65
2021/09/05 07:00:19;;;;;;;25.80;7.90;;;;;;;19.43;65.40;101067.20;117361;1182;23437;-57
2021/09/05 07:02:48;;;;;;;21.20;7.60;;;;;;;19.51;65.38;101072.23;117360;1185;23438;-65
2021/09/05 07:05:16;;;;;;;10.90;6.30;;;;;;;19.60;65.37;101073.66;117405;1184;22900;-65
2021/09/05 07:07:45;;;;;;;15.40;6.60;;;;;;;19.70;65.36;101074.71;117358;1182;23479;-57
2021/09/05 07:10:13;;;;;;;11.50;6.50;;;;;;;19.80;65.32;101075.19;117381;1182;23439;-56
2021/09/05 07:12:43;;;;;;;16.20;7.00;;;;;;;19.90;65.13;101081.77;117328;1186;22937;-57
2021/09/05 07:15:11;;;;;;;13.20;6.40;;;;;;;19.97;64.99;101086.50;117424;1181;24163;-57
2021/09/05 07:17:41;;;;;;;12.90;7.20;;;;;;;20.01;64.87;101088.29;117377;1176;22933;-66
2021/09/05 07:20:10;;;;;;;21.40;7.70;;;;;;;20.05;64.74;101089.02;117400;1183;23576;-65
2021/09/05 07:22:39;;;;;;;14.70;6.10;;;;;;;20.10;64.75;101092.19;117394;1185;23569;-65
2021/09/05 07:25:08;;;;;;;13.30;6.50;;;;;;;20.14;64.71;101095.06;117318;1184;23584;-67
2021/09/05 07:27:36;;;;;;;11.10;5.70;;;;;;;20.19;64.72;101097.35;117455;1185;23520;-66
2021/09/05 07:30:05;;;;;;;11.30;6.60;;;;;;;20.24;64.65;101098.05;117351;1185;23688;-58
2021/09/05 07:32:34;;;;;;;15.80;6.70;;;;;;;20.29;64.59;101100.52;117320;1185;21859;-66
2021/09/05 07:35:04;;;;;;;9.90;6.50;;;;;;;20.33;64.64;101103.70;117321;1182;23544;-66
2021/09/05 07:37:33;;;;;;;9.30;5.50;;;;;;;20.41;64.59;101105.02;117330;1185;23216;-58
2021/09/05 07:40:02;;;;;;;10.90;6.80;;;;;;;20.48;64.56;101106.30;117395;1184;21856;-64
2021/09/05 07:42:31;;;;;;;8.20;5.70;;;;;;;20.57;64.52;101108.80;117389;1183;22970;-66
2021/09/05 07:44:59;;;;;;;9.30;5.60;;;;;;;20.67;64.47;101110.86;117363;1184;21940;-65
2021/09/05 07:47:27;;;;;;;9.60;5.90;;;;;;;20.80;64.42;101117.27;117410;1185;24152;-64
2021/09/05 07:49:55;;;;;;;9.90;6.10;;;;;;;20.92;64.38;101111.23;117401;1184;21855;-58
2021/09/05 07:52:24;;;;;;;9.50;5.80;;;;;;;21.07;64.23;101112.17;117335;1185;21855;-65
2021/09/05 07:54:52;;;;;;;14.00;6.90;;;;;;;21.20;64.30;101116.08;117386;1185;22099;-57
2021/09/05 07:57:20;;;;;;;12.10;5.60;;;;;;;21.41;64.32;101121.35;117308;1186;23609;-58
2021/09/05 07:59:48;;;;;;;9.60;5.80;;;;;;;21.63;64.16;101121.59;117378;1182;23462;-66
2021/09/05 08:02:16;;;;;;;9.70;5.80;;;;;;;21.80;63.76;101120.65;117442;1184;24598;-58
2021/09/05 08:04:45;;;;;;;18.70;6.00;;;;;;;21.97;63.43;101123.08;117304;1185;22170;-57
2021/09/05 08:07:13;;;;;;;9.10;5.80;;;;;;;22.12;63.36;101127.36;117394;1185;21849;-65
2021/09/05 08:09:41;;;;;;;10.70;6.10;;;;;;;22.18;63.28;101125.64;117458;1184;23531;-66
2021/09/05 08:12:09;;;;;;;10.10;5.30;;;;;;;22.22;63.28;101125.41;117414;1183;21895;-65
2021/09/05 08:14:38;;;;;;;9.70;6.00;;;;;;;22.28;63.16;101124.26;117401;1185;21858;-66
2021/09/05 08:17:07;;;;;;;10.90;5.70;;;;;;;22.36;63.30;101125.45;117394;1184;24152;-66
2021/09/05 08:19:35;;;;;;;8.80;5.60;;;;;;;22.49;63.30;101124.27;117393;1185;21855;-58
2021/09/05 08:22:04;;;;;;;7.50;5.30;;;;;;;22.62;63.18;101124.89;117642;1185;24157;-66
2021/09/05 08:24:32;;;;;;;9.30;5.40;;;;;;;22.72;63.25;101125.64;117360;1185;24164;-58
2021/09/05 08:27:00;;;;;;;8.20;5.70;;;;;;;22.87;63.11;101127.92;117362;1182;21927;-58
2021/09/05 08:29:29;;;;;;;7.30;5.00;;;;;;;23.05;62.86;101129.49;117405;1184;23437;-58
2021/09/05 08:31:57;;;;;;;7.70;5.30;;;;;;;23.16;62.60;101124.77;117326;1182;23490;-65
2021/09/05 08:34:25;;;;;;;8.50;5.40;;;;;;;23.25;62.62;101127.00;117363;1185;22986;-58
2021/09/05 08:36:54;;;;;;;8.10;5.00;;;;;;;23.45;62.48;101125.79;117406;1185;23557;-65
2021/09/05 08:39:22;;;;;;;9.50;4.70;;;;;;;23.76;62.35;101121.58;117408;1182;21843;-66
2021/09/05 08:41:50;;;;;;;8.50;5.00;;;;;;;24.12;62.24;101120.11;117420;1182;23449;-58
2021/09/05 08:44:18;;;;;;;7.50;4.70;;;;;;;24.45;61.08;101118.77;117304;1185;24152;-64
2021/09/05 08:51:24;;;;;;;18.10;7.60;;;;;;;24.76;60.26;101121.05;117358;1176;23602;-64
2021/09/05 08:53:52;;;;;;;5.70;3.90;;;;;;;24.84;60.25;101125.44;117406;1185;24152;-58
2021/09/05 08:56:21;;;;;;;14.70;7.50;;;;;;;24.86;59.86;101120.99;117390;1182;21854;-59
2021/09/05 08:58:49;;;;;;;9.60;5.30;;;;;;;25.06;60.45;101116.70;117353;1181;23466;-58
2021/09/05 09:01:20;;;;;;;9.00;5.80;;;;;;;25.40;60.31;101111.38;117445;1182;23436;-65
2021/09/05 09:03:48;;;;;;;7.20;4.40;;;;;;;25.72;59.81;101107.45;117396;1183;23429;-65
2021/09/05 09:06:18;;;;;;;6.70;4.50;;;;;;;25.98;59.66;101110.08;117441;1185;24163;-64
2021/09/05 09:08:55;;;;;;;11.20;6.20;;;;;;;26.32;59.63;101107.11;117439;1184;23487;-65
2021/09/05 09:11:24;;;;;;;6.00;4.40;;;;;;;26.73;59.48;101104.52;117414;1180;23056;-58
2021/09/05 09:13:56;;;;;;;6.20;4.30;;;;;;;27.03;59.09;101099.80;117417;1185;23456;-64
2021/09/05 09:16:34;;;;;;;7.90;4.00;;;;;;;27.57;59.98;101099.52;117366;1185;23005;-63
2021/09/05 09:19:03;;;;;;;5.80;3.70;;;;;;;28.02;58.78;101093.02;117456;1185;23475;-59
2021/09/05 09:21:38;;;;;;;7.20;4.10;;;;;;;28.21;57.71;101093.66;117342;1186;21860;-59
2021/09/05 09:24:12;;;;;;;6.10;3.90;;;;;;;28.52;57.84;101093.11;117471;1182;21842;-58
2021/09/05 09:26:40;;;;;;;8.10;3.80;;;;;;;28.90;57.75;101085.45;117415;1184;21864;-59
2021/09/05 09:29:15;;;;;;;6.50;3.80;;;;;;;29.27;57.37;101083.08;117319;1177;21850;-59
2021/09/05 09:31:45;;;;;;;5.60;3.50;;;;;;;29.64;56.87;101081.58;117396;1185;21852;-65
2021/09/05 09:34:20;;;;;;;6.10;3.40;;;;;;;30.17;56.91;101077.23;117309;1184;21855;-59
2021/09/05 09:36:55;;;;;;;4.40;2.90;;;;;;;30.42;56.32;101078.06;117383;1185;21845;-66
2021/09/05 09:39:23;;;;;;;5.80;3.10;;;;;;;30.62;56.06;101073.83;117429;1185;23544;-64
2021/09/05 09:41:51;;;;;;;4.90;3.10;;;;;;;30.81;55.58;101070.77;117354;1185;21853;-59
2021/09/05 09:44:19;;;;;;;7.60;3.90;;;;;;;30.85;55.28;101067.45;117344;1179;21840;-64
2021/09/05 09:47:07;;;;;;;8.90;4.20;;;;;;;30.92;55.00;101066.56;117382;1186;23439;-59
2021/09/05 09:49:49;;;;;;;6.60;3.20;;;;;;;31.05;54.68;101067.91;117310;1186;22918;-65
2021/09/05 09:52:17;;;;;;;6.10;3.40;;;;;;;31.26;54.64;101063.52;117376;1186;22928;-59
2021/09/05 09:54:46;;;;;;;5.30;3.50;;;;;;;31.52;54.68;101066.34;117326;1186;21854;-57
2021/09/05 09:57:14;;;;;;;6.00;3.50;;;;;;;31.82;54.84;101062.02;117399;1184;21849;-58
2021/09/05 09:59:42;;;;;;;12.40;3.60;;;;;;;32.09;54.22;101059.52;117305;1184;21966;-67
2021/09/05 10:02:16;;;;;;;9.60;3.60;;;;;;;32.27;54.30;101060.06;117364;1184;21866;-60
2021/09/05 10:04:49;;;;;;;4.70;3.50;;;;;;;32.38;53.65;101064.25;117349;1184;23429;-60
2021/09/05 10:07:18;;;;;;;6.10;3.30;;;;;;;32.39;53.40;101059.66;117260;1186;21845;-68
2021/09/05 10:09:46;;;;;;;5.60;3.70;;;;;;;32.34;52.93;101057.23;117388;1185;21933;-66
2021/09/05 10:12:24;;;;;;;6.60;3.20;;;;;;;32.25;52.51;101054.76;117377;1185;23449;-67
2021/09/05 10:14:53;;;;;;;8.30;3.70;;;;;;;32.19;52.83;101060.23;117385;1186;23469;-69
2021/09/05 10:17:22;;;;;;;10.20;3.90;;;;;;;32.13;52.73;101061.52;117400;1185;23538;-67
2021/09/05 10:20:11;;;;;;;6.60;3.50;;;;;;;31.96;52.09;101058.94;117360;1185;22901;-61
2021/09/05 10:22:54;;;;;;;7.00;3.30;;;;;;;31.76;52.04;101057.87;117357;1186;23516;-59
2021/09/05 10:25:22;;;;;;;7.30;4.00;;;;;;;31.65;51.60;101058.92;117257;1184;21854;-60
2021/09/05 10:27:50;;;;;;;10.60;3.70;;;;;;;31.73;52.17;101064.48;117455;1183;23442;-66
2021/09/05 10:30:23;;;;;;;8.70;3.60;;;;;;;31.93;51.93;101064.65;117432;1185;24716;-67
2021/09/05 10:32:57;;;;;;;5.40;3.20;;;;;;;32.12;51.98;101068.70;117377;1185;22901;-69
2021/09/05 10:35:28;;;;;;;5.10;3.20;;;;;;;32.21;52.48;101069.31;117386;1185;21857;-67
2021/09/05 10:38:08;;;;;;;5.50;3.60;;;;;;;32.07;52.97;101068.73;117339;1184;21854;-68
2021/09/05 10:40:41;;;;;;;4.30;2.90;;;;;;;31.82;53.08;101068.90;117427;1188;21888;-60
2021/09/05 10:43:09;;;;;;;5.90;3.50;;;;;;;31.48;52.82;101069.17;117397;1186;21869;-59
2021/09/05 10:45:38;;;;;;;5.00;3.40;;;;;;;31.18;52.17;101069.18;117401;1176;21855;-60
2021/09/05 10:48:28;;;;;;;7.90;3.20;;;;;;;30.89;52.01;101072.23;117315;1182;22921;-67
2021/09/05 10:51:14;;;;;;;;;;;;;;;30.60;51.99;101073.27;117325;1185;23564;-59
2021/09/05 10:53:53;;;;;;;5.50;2.90;;;;;;;30.37;51.74;101075.79;117314;1185;23592;-59
2021/09/05 10:56:24;;;;;;;5.80;3.00;;;;;;;30.18;51.49;101074.63;117423;1185;21886;-66
2021/09/05 10:59:00;;;;;;;4.10;3.00;;;;;;;30.11;51.64;101071.41;117404;1185;21845;-59
2021/09/05 11:01:30;;;;;;;5.70;3.00;;;;;;;30.23;51.94;101070.39;117273;1185;23458;-66
2021/09/05 11:04:14;;;;;;;5.70;2.80;;;;;;;30.47;51.74;101067.15;117419;1183;22908;-66
2021/09/05 11:06:52;;;;;;;5.20;3.10;;;;;;;30.80;51.73;101064.86;117282;1187;24266;-67
2021/09/05 11:09:21;;;;;;;4.70;2.90;;;;;;;31.17;51.31;101063.28;117378;1185;23548;-59
2021/09/05 11:12:15;;;;;;;4.30;2.90;;;;;;;31.30;50.58;101062.84;117305;1186;21899;-65
2021/09/05 11:14:47;;;;;;;4.90;2.60;;;;;;;31.32;50.17;101059.94;117474;1185;21848;-66
2021/09/05 11:17:36;;;;;;;4.30;2.60;;;;;;;31.57;50.80;101053.90;117334;1189;21865;-59
2021/09/05 11:20:13;;;;;;;5.60;2.60;;;;;;;31.56;49.63;101049.30;117404;1185;21991;-67
2021/09/05 11:22:43;;;;;;;7.20;3.90;;;;;;;31.53;49.65;101045.75;117344;1186;23478;-66
2021/09/05 11:25:25;;;;;;;6.80;4.00;;;;;;;31.44;48.59;101049.48;117422;1182;21849;-66
2021/09/05 11:28:09;;;;;;;10.30;4.50;;;;;;;31.17;48.88;101053.69;117444;1182;23544;-59
2021/09/05 11:30:59;;;;;;;5.70;3.40;;;;;;;30.88;48.98;101064.54;117381;1185;23529;-67